Time;durP1;ratioP1;P1;durP2;ratioP2;P2;SDS_P1;SDS_P2;PMS_P1;PMS_P2;Temp;Humidity;BMP_temperature;BMP_pressure;BME280_temperature;BME280_humidity;BME280_pressure;Samples;Min_cycle;Max_cycle;Signal;HPM_P1;HPM_P2
2023/03/20 00:01:20;;;;;;;18.00;14.10;;;9.80;99.90;;;;;;5040561;28;20144;-72
2023/03/20 00:03:46;;;;;;;18.27;14.93;;;9.80;99.90;;;;;;5024079;28;20267;-72
2023/03/20 00:06:23;;;;;;;19.92;15.18;;;9.80;99.90;;;;;;5028403;28;20068;-71
2023/03/20 00:08:51;;;;;;;19.38;15.73;;;9.70;99.90;;;;;;5026619;28;20076;-72
2023/03/20 00:11:29;;;;;;;18.77;15.05;;;9.70;99.90;;;;;;5030634;28;20143;-72
2023/03/20 00:13:59;;;;;;;20.63;15.65;;;9.70;99.90;;;;;;5026750;28;20049;-71
2023/03/20 00:16:30;;;;;;;18.92;14.90;;;9.70;99.90;;;;;;5019342;28;20046;-72
2023/03/20 00:18:56;;;;;;;20.10;15.68;;;9.70;99.90;;;;;;5027012;28;20120;-72
2023/03/20 00:21:22;;;;;;;20.23;15.23;;;9.70;99.90;;;;;;5026523;28;20053;-72
2023/03/20 00:23:48;;;;;;;17.83;14.30;;;9.70;99.90;;;;;;5027146;28;20511;-72
2023/03/20 00:26:18;;;;;;;17.75;15.00;;;9.70;99.90;;;;;;5029771;28;20037;-72
2023/03/20 00:28:48;;;;;;;16.83;13.38;;;9.60;99.90;;;;;;5026114;28;20049;-72
2023/03/20 00:31:17;;;;;;;16.60;12.73;;;9.60;99.90;;;;;;5020787;28;20054;-72
2023/03/20 00:33:42;;;;;;;15.52;12.73;;;9.60;99.90;;;;;;5018952;28;20515;-72
2023/03/20 00:36:08;;;;;;;16.63;13.45;;;9.60;99.90;;;;;;5023898;28;20037;-72
2023/03/20 00:38:34;;;;;;;17.63;14.15;;;9.60;99.90;;;;;;5029900;28;20046;-72
2023/03/20 00:41:31;;;;;;;19.45;13.82;;;9.50;99.90;;;;;;5025911;28;20099;-72
2023/03/20 00:44:00;;;;;;;18.05;14.13;;;9.50;99.90;;;;;;5026606;28;20052;-71
2023/03/20 00:46:27;;;;;;;19.77;15.02;;;9.50;99.90;;;;;;5027451;28;20037;-72
2023/03/20 00:48:53;;;;;;;19.35;15.20;;;9.50;99.90;;;;;;5026962;28;20042;-72
2023/03/20 00:51:19;;;;;;;21.52;15.48;;;9.50;99.90;;;;;;5024462;28;20060;-72
2023/03/20 00:53:45;;;;;;;20.27;15.73;;;9.50;99.90;;;;;;5029938;28;20489;-72
2023/03/20 00:56:25;;;;;;;20.15;15.82;;;9.50;99.90;;;;;;5028631;28;20052;-72
2023/03/20 00:58:51;;;;;;;21.30;16.95;;;9.50;99.90;;;;;;5028224;28;20579;-72
2023/03/20 01:01:17;;;;;;;21.60;16.42;;;9.50;99.90;;;;;;5027807;28;20136;-72
2023/03/20 01:03:43;;;;;;;25.10;17.85;;;9.40;99.90;;;;;;5030467;28;20126;-71
2023/03/20 01:06:11;;;;;;;24.05;18.38;;;9.40;99.90;;;;;;5028321;28;20072;-72
2023/03/20 01:08:37;;;;;;;30.65;19.95;;;9.40;99.90;;;;;;5026271;28;20125;-72
2023/03/20 01:11:03;;;;;;;25.35;19.08;;;9.30;99.90;;;;;;5028341;28;20124;-72
2023/03/20 01:13:31;;;;;;;25.35;19.60;;;9.30;99.90;;;;;;5029819;28;20052;-71
2023/03/20 01:15:57;;;;;;;26.85;18.80;;;9.30;99.90;;;;;;5022850;28;20038;-71
2023/03/20 01:18:25;;;;;;;27.85;19.13;;;9.30;99.90;;;;;;5027978;28;20049;-72
2023/03/20 01:20:54;;;;;;;30.55;20.85;;;9.30;99.90;;;;;;5021352;28;20053;-71
2023/03/20 01:23:25;;;;;;;29.27;22.38;;;9.30;99.90;;;;;;5027791;28;20412;-72
2023/03/20 01:25:51;;;;;;;31.92;21.63;;;9.30;99.90;;;;;;5024310;28;20416;-72
2023/03/20 01:28:22;;;;;;;33.30;20.70;;;9.30;99.90;;;;;;5027635;28;20038;-72
2023/03/20 01:30:48;;;;;;;27.25;19.48;;;9.20;99.90;;;;;;5017125;28;20115;-72
2023/03/20 01:33:20;;;;;;;31.52;19.25;;;9.20;99.90;;;;;;5028158;28;20539;-72
2023/03/20 01:35:47;;;;;;;29.52;19.05;;;9.20;99.90;;;;;;5033524;28;20145;-72
2023/03/20 01:38:33;;;;;;;31.35;18.95;;;9.20;99.90;;;;;;5027902;28;20112;-72
2023/03/20 01:41:03;;;;;;;28.73;17.83;;;9.20;99.90;;;;;;5023854;28;20576;-72
2023/03/20 01:43:29;;;;;;;31.88;18.48;;;9.20;99.90;;;;;;5026251;28;20037;-71
2023/03/20 01:46:16;;;;;;;29.33;18.02;;;9.20;99.90;;;;;;5026625;28;20061;-72
2023/03/20 01:48:59;;;;;;;27.20;16.80;;;9.20;99.90;;;;;;5025677;28;20049;-72
2023/03/20 01:51:31;;;;;;;27.35;17.30;;;9.20;99.90;;;;;;5026933;28;20041;-72
2023/03/20 01:54:32;;;;;;;28.30;17.40;;;9.10;99.90;;;;;;5027839;28;20081;-72
2023/03/20 01:57:24;;;;;;;31.92;16.95;;;9.10;99.90;;;;;;5014507;28;20065;-71
2023/03/20 01:59:54;;;;;;;20.83;13.88;;;9.10;99.90;;;;;;5024100;28;20053;-72
2023/03/20 02:02:27;;;;;;;23.75;14.23;;;9.10;99.90;;;;;;5026574;28;20493;-72
2023/03/20 02:04:58;;;;;;;20.45;12.13;;;9.10;99.90;;;;;;5022352;28;20056;-72
2023/03/20 02:07:24;;;;;;;19.30;11.25;;;9.00;99.90;;;;;;5017629;28;20050;-72
2023/03/20 02:09:50;;;;;;;18.73;11.20;;;9.00;99.90;;;;;;5023242;28;20044;-72
2023/03/20 02:12:18;;;;;;;18.67;10.75;;;9.00;99.90;;;;;;5024385;28;20037;-72
2023/03/20 02:14:45;;;;;;;15.90;10.20;;;9.00;99.90;;;;;;5025775;28;20042;-72
2023/03/20 02:17:11;;;;;;;;;;;9.00;99.90;;;;;;5031392;28;20069;-71
2023/03/20 02:20:21;;;;;;;20.63;10.23;;;9.00;99.90;;;;;;5028071;28;20368;-72
2023/03/20 02:23:36;;;;;;;16.38;9.35;;;9.00;99.90;;;;;;4965394;28;20042;-72
2023/03/20 02:26:21;;;;;;;17.85;8.82;;;9.00;99.90;;;;;;5022593;28;20049;-72
2023/03/20 02:29:16;;;;;;;17.75;9.10;;;8.90;99.90;;;;;;5028494;28;20119;-72
2023/03/20 02:32:00;;;;;;;16.27;8.77;;;8.90;99.90;;;;;;5030323;28;20858;-72
2023/03/20 02:34:55;;;;;;;13.82;9.48;;;8.90;99.90;;;;;;5025441;28;20065;-72
2023/03/20 02:37:42;;;;;;;19.60;10.00;;;8.90;99.90;;;;;;5027475;28;20131;-72
2023/03/20 02:40:37;;;;;;;18.02;10.32;;;8.90;99.90;;;;;;5029651;28;21676;-71
2023/03/20 02:43:26;;;;;;;19.42;10.73;;;8.80;99.90;;;;;;5026909;28;20057;-72
2023/03/20 02:45:55;;;;;;;19.65;11.20;;;8.80;99.90;;;;;;5028450;28;20500;-72
2023/03/20 02:48:29;;;;;;;17.50;10.80;;;8.80;99.90;;;;;;5028359;28;20495;-72
2023/03/20 02:51:19;;;;;;;17.08;12.15;;;8.80;99.90;;;;;;5025611;28;20046;-72
2023/03/20 02:53:53;;;;;;;19.77;12.52;;;8.80;99.90;;;;;;5029563;28;20046;-72
2023/03/20 02:56:39;;;;;;;18.75;11.73;;;8.80;99.90;;;;;;5030142;28;20382;-72
2023/03/20 02:59:27;;;;;;;16.50;12.67;;;8.80;99.90;;;;;;5025608;28;20507;-72
2023/03/20 03:02:33;;;;;;;18.85;13.27;;;8.80;99.90;;;;;;5020987;28;20308;-72
2023/03/20 03:05:03;;;;;;;19.55;12.50;;;8.80;99.90;;;;;;5030563;28;20059;-72
2023/03/20 03:07:33;;;;;;;21.35;14.57;;;8.80;99.90;;;;;;5031519;28;20051;-72
2023/03/20 03:10:10;;;;;;;25.55;14.80;;;8.80;99.90;;;;;;5030898;28;20091;-72
2023/03/20 03:12:40;;;;;;;24.05;15.02;;;8.70;99.90;;;;;;5031879;28;20049;-72
2023/03/20 03:15:24;;;;;;;21.25;15.23;;;8.70;99.90;;;;;;5029932;28;20167;-71
2023/03/20 03:17:50;;;;;;;23.15;15.23;;;8.70;99.90;;;;;;5030526;28;20657;-71
2023/03/20 03:20:30;;;;;;;21.33;15.05;;;8.80;99.90;;;;;;5019569;28;20069;-71
2023/03/20 03:22:55;;;;;;;29.05;16.98;;;8.80;99.90;;;;;;5029420;28;20046;-72
2023/03/20 03:25:26;;;;;;;22.98;17.00;;;8.70;99.90;;;;;;5028175;28;20050;-72
2023/03/20 03:28:17;;;;;;;26.83;17.63;;;8.80;99.90;;;;;;5020775;28;20045;-71
2023/03/20 03:30:44;;;;;;;25.08;17.35;;;8.80;99.90;;;;;;4989498;28;20056;-72
2023/03/20 03:33:20;;;;;;;28.77;18.08;;;8.70;99.90;;;;;;5029580;28;20045;-71
2023/03/20 03:35:47;;;;;;;24.75;17.83;;;8.70;99.90;;;;;;5023966;28;20477;-71
2023/03/20 03:38:27;;;;;;;26.20;18.43;;;8.70;99.90;;;;;;5024642;28;20042;-72
2023/03/20 03:41:14;;;;;;;26.17;18.20;;;8.70;99.90;;;;;;5018942;28;20045;-71
2023/03/20 03:43:48;;;;;;;27.52;18.13;;;8.70;99.90;;;;;;5026116;28;20038;-71
2023/03/20 03:46:26;;;;;;;26.90;18.10;;;8.80;99.90;;;;;;5023758;28;20132;-71
2023/03/20 03:48:55;;;;;;;25.80;18.80;;;8.70;99.90;;;;;;5029739;28;20176;-71
2023/03/20 03:51:25;;;;;;;28.90;19.15;;;8.80;99.90;;;;;;5024473;28;20041;-71
2023/03/20 03:54:07;;;;;;;29.48;17.75;;;8.80;99.90;;;;;;5022758;28;20136;-71
2023/03/20 03:56:34;;;;;;;25.02;18.38;;;8.70;99.90;;;;;;5028120;28;20052;-71
2023/03/20 03:59:05;;;;;;;24.45;17.30;;;8.70;99.90;;;;;;5025520;28;20148;-71
2023/03/20 04:01:34;;;;;;;27.20;18.05;;;8.70;99.90;;;;;;5026024;28;20053;-71
2023/03/20 04:04:03;;;;;;;27.23;17.75;;;8.70;99.90;;;;;;5028206;28;20412;-71
2023/03/20 04:06:30;;;;;;;24.75;16.63;;;8.80;99.90;;;;;;5029442;28;20042;-71
2023/03/20 04:08:56;;;;;;;22.63;15.88;;;8.80;99.90;;;;;;5027416;28;20053;-71
2023/03/20 04:11:24;;;;;;;22.10;15.95;;;8.70;99.90;;;;;;5026297;28;20050;-71
2023/03/20 04:13:51;;;;;;;23.25;16.02;;;8.80;99.90;;;;;;5023159;28;20053;-71
2023/03/20 04:16:21;;;;;;;23.38;15.40;;;8.80;99.90;;;;;;5023351;28;20052;-71
2023/03/20 04:18:47;;;;;;;20.48;14.68;;;8.80;99.90;;;;;;5028713;28;20095;-71
2023/03/20 04:21:14;;;;;;;23.48;15.75;;;8.80;99.90;;;;;;5028693;28;20041;-71
2023/03/20 04:23:40;;;;;;;;;;;8.70;99.90;;;;;;5027732;28;20042;-71
2023/03/20 04:26:06;;;;;;;21.10;13.80;;;8.80;99.90;;;;;;5025561;28;19921;-71
2023/03/20 04:28:32;;;;;;;18.77;12.93;;;8.70;99.90;;;;;;5029260;28;20163;-71
2023/03/20 04:30:59;;;;;;;21.02;12.70;;;8.70;99.90;;;;;;5028337;28;20128;-71
2023/03/20 04:33:26;;;;;;;20.55;12.07;;;8.80;99.90;;;;;;5025837;28;20064;-71
2023/03/20 04:35:52;;;;;;;19.98;13.20;;;8.80;99.90;;;;;;5024305;28;20068;-71
2023/03/20 04:38:19;;;;;;;19.50;12.68;;;8.80;99.90;;;;;;5023386;28;20038;-71
2023/03/20 04:40:46;;;;;;;21.27;12.45;;;8.70;99.90;;;;;;5026864;28;20094;-71
2023/03/20 04:43:13;;;;;;;16.50;11.43;;;8.80;99.90;;;;;;5029360;28;20064;-71
2023/03/20 04:45:39;;;;;;;18.03;11.67;;;8.80;99.90;;;;;;5020779;28;20036;-71
2023/03/20 04:48:04;;;;;;;17.27;11.77;;;8.80;99.90;;;;;;5022149;28;20303;-71
2023/03/20 04:50:30;;;;;;;17.83;11.77;;;8.80;99.90;;;;;;5027989;28;20116;-71
2023/03/20 04:52:56;;;;;;;20.25;12.20;;;8.70;99.90;;;;;;5027840;28;20033;-71
2023/03/20 04:55:22;;;;;;;15.95;11.65;;;8.70;99.90;;;;;;5022593;28;20068;-71
2023/03/20 04:57:48;;;;;;;20.67;11.65;;;8.70;99.90;;;;;;5028703;28;20037;-71
2023/03/20 05:00:14;;;;;;;16.27;11.77;;;8.80;99.90;;;;;;5029750;28;20042;-71
2023/03/20 05:02:40;;;;;;;16.73;11.65;;;8.70;99.90;;;;;;5029330;28;20049;-71
2023/03/20 05:05:06;;;;;;;17.38;11.45;;;8.70;99.90;;;;;;5028618;28;20092;-71
2023/03/20 05:07:31;;;;;;;15.73;12.40;;;8.70;99.90;;;;;;5022367;28;20501;-71
2023/03/20 05:09:57;;;;;;;17.65;12.05;;;8.70;99.90;;;;;;5026370;28;20172;-71
2023/03/20 05:12:25;;;;;;;18.20;13.07;;;8.70;99.90;;;;;;5029722;28;20044;-71
2023/03/20 05:14:51;;;;;;;18.33;12.70;;;8.70;99.90;;;;;;5027838;28;20053;-71
2023/03/20 05:17:18;;;;;;;17.20;12.82;;;8.70;99.90;;;;;;5026488;28;20038;-71
2023/03/20 05:19:44;;;;;;;17.10;13.07;;;8.70;99.90;;;;;;5027846;28;20073;-72
2023/03/20 05:22:10;;;;;;;19.67;13.60;;;8.70;99.90;;;;;;5028048;28;20596;-71
2023/03/20 05:24:35;;;;;;;16.88;13.40;;;8.70;99.90;;;;;;5022601;28;20607;-71
2023/03/20 05:27:01;;;;;;;18.45;13.00;;;8.70;99.90;;;;;;5025378;28;20068;-71
2023/03/20 05:29:27;;;;;;;20.48;14.18;;;8.60;99.90;;;;;;5025685;28;20365;-71
2023/03/20 05:31:54;;;;;;;18.02;14.18;;;8.60;99.90;;;;;;5021290;28;20144;-71
2023/03/20 05:34:20;;;;;;;19.25;14.27;;;8.60;99.90;;;;;;5027067;28;20050;-71
2023/03/20 05:36:46;;;;;;;18.77;14.48;;;8.60;99.90;;;;;;5024679;28;20034;-71
2023/03/20 05:39:12;;;;;;;21.48;15.25;;;8.70;99.90;;;;;;5026123;28;20508;-71
2023/03/20 05:41:37;;;;;;;18.77;14.85;;;8.60;99.90;;;;;;5015776;28;20132;-71
2023/03/20 05:44:03;;;;;;;20.77;14.75;;;8.60;99.90;;;;;;5026865;28;20188;-71
2023/03/20 05:46:29;;;;;;;18.42;14.75;;;8.60;99.90;;;;;;5029652;28;20471;-71
2023/03/20 05:48:54;;;;;;;21.10;15.98;;;8.60;99.90;;;;;;5029974;28;20037;-71
2023/03/20 05:51:20;;;;;;;21.13;16.02;;;8.60;99.90;;;;;;5027174;28;20072;-71
2023/03/20 05:53:46;;;;;;;21.77;16.77;;;8.60;99.90;;;;;;5027961;28;20089;-71
2023/03/20 05:56:12;;;;;;;20.50;16.85;;;8.60;99.90;;;;;;5029637;28;20045;-71
2023/03/20 05:58:37;;;;;;;20.90;16.48;;;8.60;99.90;;;;;;5026599;28;20037;-71
2023/03/20 06:01:03;;;;;;;20.38;16.52;;;8.60;99.90;;;;;;5028053;28;20412;-71
2023/03/20 06:03:29;;;;;;;20.23;16.25;;;8.60;99.90;;;;;;5033469;28;20135;-71
2023/03/20 06:05:55;;;;;;;22.60;17.15;;;8.60;99.90;;;;;;5026181;28;20551;-71
2023/03/20 06:08:20;;;;;;;20.58;16.60;;;8.60;99.90;;;;;;5032277;28;20495;-71
2023/03/20 06:10:48;;;;;;;19.73;15.60;;;8.60;99.90;;;;;;5031270;28;20133;-71
2023/03/20 06:13:14;;;;;;;16.80;15.02;;;8.60;99.90;;;;;;5029107;28;20057;-71
2023/03/20 06:15:40;;;;;;;19.00;15.13;;;8.60;99.90;;;;;;5027715;28;20388;-71
2023/03/20 06:18:06;;;;;;;18.40;14.68;;;8.60;99.90;;;;;;5031824;28;20051;-71
2023/03/20 06:20:31;;;;;;;16.10;13.30;;;8.60;99.90;;;;;;5028396;28;20647;-71
2023/03/20 06:22:57;;;;;;;17.45;13.07;;;8.60;99.90;;;;;;5023108;28;20107;-71
2023/03/20 06:25:23;;;;;;;16.08;12.20;;;8.60;99.90;;;;;;5030774;28;20037;-71
2023/03/20 06:27:48;;;;;;;16.80;12.32;;;8.60;99.90;;;;;;5018969;28;20623;-71
2023/03/20 06:30:15;;;;;;;12.98;10.82;;;8.60;99.90;;;;;;5030551;28;20451;-71
2023/03/20 06:32:41;;;;;;;15.55;10.75;;;8.70;99.90;;;;;;5022235;28;20048;-71
2023/03/20 06:35:08;;;;;;;12.63;10.55;;;8.70;99.90;;;;;;5022905;28;20420;-71
2023/03/20 06:37:35;;;;;;;12.07;10.23;;;8.70;99.90;;;;;;5031645;28;20099;-73
2023/03/20 06:40:02;;;;;;;17.40;10.70;;;8.70;99.90;;;;;;5027469;28;20145;-71
2023/03/20 06:42:28;;;;;;;13.90;10.52;;;8.70;99.90;;;;;;5026829;28;20047;-71
2023/03/20 06:44:55;;;;;;;14.68;10.35;;;8.70;99.90;;;;;;5027014;28;20057;-71
2023/03/20 06:47:21;;;;;;;16.17;10.75;;;8.70;99.90;;;;;;5029731;28;20392;-71
2023/03/20 06:49:47;;;;;;;15.75;10.70;;;8.70;99.90;;;;;;5025926;28;20112;-71
2023/03/20 06:52:18;;;;;;;13.30;10.40;;;8.80;99.90;;;;;;5030736;28;20492;-71
2023/03/20 06:54:44;;;;;;;16.98;11.32;;;8.80;99.90;;;;;;5025946;28;20033;-71
2023/03/20 06:57:10;;;;;;;16.55;11.27;;;8.80;99.90;;;;;;5031906;28;20095;-70
2023/03/20 06:59:36;;;;;;;14.82;10.82;;;8.80;99.90;;;;;;5026670;28;20046;-71
2023/03/20 07:02:03;;;;;;;17.58;11.23;;;8.80;99.90;;;;;;5026664;28;20052;-71
2023/03/20 07:04:28;;;;;;;15.10;11.33;;;8.80;99.90;;;;;;5030706;28;20049;-71
2023/03/20 07:06:57;;;;;;;16.88;11.07;;;8.80;99.90;;;;;;5027408;28;20045;-71
2023/03/20 07:09:23;;;;;;;17.00;10.75;;;8.90;99.90;;;;;;5027051;28;20072;-71
2023/03/20 07:11:49;;;;;;;12.68;10.10;;;8.90;99.90;;;;;;5027005;28;20088;-71
2023/03/20 07:14:15;;;;;;;12.77;9.85;;;8.90;99.90;;;;;;5026715;28;20481;-71
2023/03/20 07:16:41;;;;;;;15.77;10.73;;;8.90;99.90;;;;;;5025860;28;20088;-71
2023/03/20 07:19:09;;;;;;;13.60;9.50;;;9.00;99.90;;;;;;5027057;28;20042;-71
2023/03/20 07:21:35;;;;;;;14.57;9.70;;;9.00;99.90;;;;;;5029728;28;20428;-71
2023/03/20 07:24:05;;;;;;;14.15;8.55;;;9.00;99.90;;;;;;5024301;28;20053;-71
2023/03/20 07:26:31;;;;;;;14.15;8.85;;;9.00;99.90;;;;;;5030013;28;20045;-71
2023/03/20 07:28:56;;;;;;;13.55;8.85;;;9.00;99.90;;;;;;5020245;28;20172;-71
2023/03/20 07:31:28;;;;;;;14.30;9.32;;;9.00;99.90;;;;;;5027275;28;20084;-71
2023/03/20 07:33:54;;;;;;;13.57;8.88;;;9.00;99.90;;;;;;5021351;28;20635;-71
2023/03/20 07:36:20;;;;;;;15.70;8.95;;;9.00;99.90;;;;;;5023623;28;20061;-70
2023/03/20 07:38:46;;;;;;;13.70;8.85;;;9.10;99.90;;;;;;5026180;28;20049;-71
2023/03/20 07:41:12;;;;;;;16.75;9.30;;;9.10;99.90;;;;;;5025244;28;20041;-71
2023/03/20 07:43:37;;;;;;;14.60;9.82;;;9.10;99.90;;;;;;5027305;28;20048;-71
2023/03/20 07:46:05;;;;;;;18.05;9.60;;;9.10;99.90;;;;;;5021570;28;20099;-70
2023/03/20 07:48:30;;;;;;;;;;;9.10;99.90;;;;;;5025756;28;20052;-71
2023/03/20 07:50:56;;;;;;;16.38;9.15;;;9.10;99.90;;;;;;5030678;28;20384;-71
2023/03/20 07:53:22;;;;;;;13.07;9.43;;;9.10;99.90;;;;;;5028108;28;20115;-70
2023/03/20 07:55:47;;;;;;;15.52;9.68;;;9.10;99.90;;;;;;5020649;28;20041;-71
2023/03/20 07:58:13;;;;;;;15.77;9.77;;;9.10;99.90;;;;;;5027584;28;20069;-71
2023/03/20 08:00:39;;;;;;;16.10;9.70;;;9.20;99.90;;;;;;5027081;28;20050;-71
2023/03/20 08:03:05;;;;;;;15.55;9.90;;;9.20;99.90;;;;;;5025269;28;20104;-72
2023/03/20 08:05:31;;;;;;;17.58;10.63;;;9.20;99.90;;;;;;5027001;28;20076;-75
2023/03/20 08:07:57;;;;;;;15.57;10.73;;;9.30;99.90;;;;;;5024524;28;20481;-71
2023/03/20 08:10:22;;;;;;;16.50;10.32;;;9.20;99.90;;;;;;5012643;28;20087;-71
2023/03/20 08:12:48;;;;;;;14.95;10.65;;;9.20;99.90;;;;;;5018731;28;20059;-70
2023/03/20 08:15:14;;;;;;;14.98;10.82;;;9.30;99.90;;;;;;5018598;28;20089;-70
2023/03/20 08:17:46;;;;;;;19.00;11.70;;;9.30;99.90;;;;;;5025508;28;20520;-69
2023/03/20 08:20:13;;;;;;;17.77;11.13;;;9.30;99.90;;;;;;5015687;28;20070;-69
2023/03/20 08:22:43;;;;;;;17.23;11.23;;;9.40;99.90;;;;;;5019903;28;20588;-71
2023/03/20 08:25:09;;;;;;;18.98;12.20;;;9.40;99.90;;;;;;5031200;28;20044;-70
2023/03/20 08:27:37;;;;;;;16.67;11.50;;;9.40;99.90;;;;;;5030049;28;20064;-69
2023/03/20 08:30:03;;;;;;;;;;;9.40;99.90;;;;;;5025827;28;20049;-70
2023/03/20 08:32:29;;;;;;;19.88;12.70;;;9.50;99.90;;;;;;5023895;28;20265;-70
2023/03/20 08:34:54;;;;;;;18.48;12.40;;;9.50;99.90;;;;;;5018290;28;20160;-70
2023/03/20 08:37:21;;;;;;;17.58;12.75;;;9.50;99.90;;;;;;5023374;28;20065;-69
2023/03/20 08:39:47;;;;;;;19.10;13.07;;;9.60;99.90;;;;;;5026271;28;20034;-70
2023/03/20 08:42:13;;;;;;;21.50;13.18;;;9.60;99.90;;;;;;5025406;28;20481;-69
2023/03/20 08:44:38;;;;;;;18.38;12.63;;;9.60;99.90;;;;;;5030641;28;20052;-69
2023/03/20 08:47:06;;;;;;;20.13;13.30;;;9.60;99.90;;;;;;5026724;28;20087;-70
2023/03/20 08:49:32;;;;;;;;;;;9.60;99.90;;;;;;5022907;28;20057;-71
2023/03/20 08:51:59;;;;;;;20.23;13.20;;;9.60;99.90;;;;;;5029778;28;20439;-71
2023/03/20 08:54:24;;;;;;;21.03;14.00;;;9.60;99.90;;;;;;5016932;28;20045;-71
2023/03/20 08:56:50;;;;;;;20.83;13.73;;;9.70;99.90;;;;;;5013077;28;20045;-70
2023/03/20 08:59:16;;;;;;;20.10;13.85;;;9.70;99.90;;;;;;5020795;28;20115;-69
2023/03/20 09:01:41;;;;;;;18.67;13.68;;;9.80;99.90;;;;;;5027829;28;20098;-70
2023/03/20 09:04:07;;;;;;;18.92;12.80;;;9.90;99.90;;;;;;5029165;28;20053;-71
2023/03/20 09:06:36;;;;;;;20.20;13.45;;;9.90;99.90;;;;;;5027950;28;20068;-71
2023/03/20 09:09:02;;;;;;;20.63;13.15;;;10.00;99.90;;;;;;5029535;28;20394;-70
2023/03/20 09:11:28;;;;;;;20.05;13.95;;;10.00;99.90;;;;;;5021694;28;20417;-71
2023/03/20 09:13:54;;;;;;;20.63;13.20;;;10.10;99.90;;;;;;5022640;28;20040;-70
2023/03/20 09:16:19;;;;;;;17.27;12.82;;;10.10;99.90;;;;;;5025042;28;20118;-73
2023/03/20 09:18:45;;;;;;;19.05;12.30;;;10.20;99.90;;;;;;5029528;28;20128;-71
2023/03/20 09:21:11;;;;;;;19.38;13.07;;;10.30;99.90;;;;;;5018559;28;20049;-72
2023/03/20 09:23:36;;;;;;;19.38;12.65;;;10.30;99.90;;;;;;5031495;28;20066;-71
2023/03/20 09:26:02;;;;;;;22.00;12.10;;;10.40;99.90;;;;;;5032437;28;20037;-71
2023/03/20 09:28:28;;;;;;;16.88;11.63;;;10.40;99.90;;;;;;5033210;28;20034;-73
2023/03/20 09:30:57;;;;;;;18.30;11.95;;;10.50;99.90;;;;;;5032010;28;20051;-72
2023/03/20 09:33:23;;;;;;;18.73;12.77;;;10.50;99.90;;;;;;5029669;28;20076;-71
2023/03/20 09:35:50;;;;;;;17.63;11.85;;;10.50;99.90;;;;;;5027428;28;20041;-71
2023/03/20 09:38:16;;;;;;;15.32;10.85;;;10.60;99.90;;;;;;5029125;28;20088;-71
2023/03/20 09:41:01;;;;;;;18.85;11.48;;;10.60;99.90;;;;;;5026656;28;20083;-70
2023/03/20 09:43:45;;;;;;;19.70;10.98;;;10.70;99.90;;;;;;5025594;28;20452;-69
2023/03/20 09:46:10;;;;;;;14.52;10.85;;;10.70;99.90;;;;;;5022715;28;20496;-70
2023/03/20 09:48:48;;;;;;;16.45;11.50;;;10.70;99.90;;;;;;5025461;28;20060;-71
2023/03/20 09:51:19;;;;;;;15.88;10.93;;;10.70;99.90;;;;;;5031075;28;20179;-70
2023/03/20 09:54:00;;;;;;;15.95;10.68;;;10.70;99.90;;;;;;5024227;28;20073;-70
2023/03/20 09:56:28;;;;;;;18.20;10.18;;;10.80;99.90;;;;;;5030725;28;20057;-69
2023/03/20 09:58:57;;;;;;;18.90;10.45;;;10.80;99.90;;;;;;5029307;28;20053;-71
2023/03/20 10:01:28;;;;;;;16.10;9.80;;;10.90;99.90;;;;;;5030685;28;20057;-71
2023/03/20 10:04:00;;;;;;;15.70;10.10;;;11.00;99.90;;;;;;5024064;28;20045;-71
2023/03/20 10:06:25;;;;;;;16.15;9.85;;;11.00;99.90;;;;;;5028973;28;20045;-72
2023/03/20 10:08:51;;;;;;;13.80;9.20;;;11.10;99.90;;;;;;5017093;28;20054;-71
2023/03/20 10:11:51;;;;;;;16.15;9.73;;;11.10;99.90;;;;;;5019237;28;20041;-72
2023/03/20 10:14:51;;;;;;;14.65;9.50;;;11.20;99.90;;;;;;5030074;28;20045;-74
2023/03/20 10:17:29;;;;;;;13.55;7.95;;;11.20;99.90;;;;;;4999439;28;20120;-71
2023/03/20 10:20:12;;;;;;;13.80;9.50;;;11.20;99.90;;;;;;5028467;28;20489;-72
2023/03/20 10:23:06;;;;;;;15.63;8.88;;;11.30;99.90;;;;;;5024592;28;20048;-73
2023/03/20 10:25:54;;;;;;;13.35;8.63;;;11.20;99.90;;;;;;5015212;28;20112;-73
2023/03/20 10:28:29;;;;;;;13.07;8.30;;;11.20;99.90;;;;;;5031328;28;20489;-72
2023/03/20 10:31:04;;;;;;;16.55;7.95;;;11.30;99.90;;;;;;5031802;28;20191;-71
2023/03/20 10:33:52;;;;;;;13.07;8.30;;;11.30;99.90;;;;;;5023311;28;20111;-74
2023/03/20 10:36:18;;;;;;;13.05;7.82;;;11.30;99.90;;;;;;5030389;28;20038;-72
2023/03/20 10:39:02;;;;;;;13.63;7.60;;;11.30;99.90;;;;;;5024188;28;20087;-72
2023/03/20 10:41:33;;;;;;;12.30;7.60;;;11.40;99.90;;;;;;5027327;28;20053;-72
2023/03/20 10:44:01;;;;;;;13.27;7.78;;;11.40;99.90;;;;;;5031731;28;20041;-73
2023/03/20 10:46:32;;;;;;;13.55;8.07;;;11.40;99.90;;;;;;5028201;28;20080;-72
2023/03/20 10:49:25;;;;;;;12.32;7.30;;;11.30;99.90;;;;;;5023034;28;20477;-73
2023/03/20 10:51:57;;;;;;;11.82;7.28;;;11.30;99.90;;;;;;5013868;28;20053;-72
2023/03/20 10:54:39;;;;;;;16.65;7.85;;;11.30;99.90;;;;;;5032503;28;20056;-73
2023/03/20 10:57:11;;;;;;;13.30;7.85;;;11.40;99.90;;;;;;5032808;28;20132;-72
2023/03/20 10:59:50;;;;;;;13.00;7.25;;;11.40;99.90;;;;;;5031377;28;20484;-69
2023/03/20 11:02:18;;;;;;;14.93;7.65;;;11.30;99.90;;;;;;5013018;28;20416;-72
2023/03/20 11:04:49;;;;;;;12.10;7.78;;;11.30;99.90;;;;;;5030064;28;20440;-72
2023/03/20 11:07:31;;;;;;;14.95;8.40;;;11.20;99.90;;;;;;5030515;28;20045;-67
2023/03/20 11:10:09;;;;;;;16.63;8.82;;;11.20;99.90;;;;;;5028436;28;20665;-68
2023/03/20 11:12:42;;;;;;;13.10;8.50;;;11.20;99.90;;;;;;5026113;28;20057;-68
2023/03/20 11:15:34;;;;;;;14.65;8.43;;;11.10;99.90;;;;;;5029449;28;20045;-67
2023/03/20 11:18:06;;;;;;;12.00;8.88;;;11.10;99.90;;;;;;5027888;28;20037;-68
2023/03/20 11:20:43;;;;;;;43.65;11.82;;;11.10;99.90;;;;;;5023697;28;20049;-69
2023/03/20 11:23:16;;;;;;;17.02;9.50;;;11.10;99.90;;;;;;5024997;28;20103;-67
2023/03/20 11:25:51;;;;;;;15.65;8.98;;;11.10;99.90;;;;;;5027231;28;20049;-71
2023/03/20 11:28:20;;;;;;;16.23;9.70;;;11.00;99.90;;;;;;5023585;28;20040;-72
2023/03/20 11:30:47;;;;;;;19.67;10.63;;;11.00;99.90;;;;;;5017979;28;20050;-69
2023/03/20 11:33:14;;;;;;;16.67;10.48;;;10.90;99.90;;;;;;5022237;28;20124;-70
2023/03/20 11:35:44;;;;;;;16.08;9.90;;;10.80;99.90;;;;;;5026200;28;20126;-72
2023/03/20 11:38:15;;;;;;;14.70;9.73;;;10.80;99.90;;;;;;5012930;28;20534;-70
2023/03/20 11:40:40;;;;;;;16.00;9.20;;;10.70;99.90;;;;;;5021298;28;20041;-71
2023/03/20 11:43:17;;;;;;;15.98;9.35;;;10.60;99.90;;;;;;5024390;28;20107;-70
2023/03/20 11:45:46;;;;;;;14.20;8.70;;;10.50;99.90;;;;;;5024800;28;20122;-71
2023/03/20 11:48:23;;;;;;;15.68;9.05;;;10.50;99.90;;;;;;5025175;28;20495;-70
2023/03/20 11:51:03;;;;;;;14.40;8.93;;;10.40;99.90;;;;;;5016395;28;20144;-71
2023/03/20 11:53:34;;;;;;;17.80;9.18;;;10.40;99.90;;;;;;5028768;28;20128;-70
2023/03/20 11:56:24;;;;;;;16.10;8.70;;;10.40;99.90;;;;;;5027459;28;20041;-71
2023/03/20 11:58:56;;;;;;;15.10;9.45;;;10.30;99.90;;;;;;5022642;28;20064;-70
2023/03/20 12:01:23;;;;;;;14.18;9.18;;;10.30;99.90;;;;;;5028903;28;20053;-70
2023/03/20 12:03:54;;;;;;;18.35;9.55;;;10.30;99.90;;;;;;5019274;28;20393;-70
2023/03/20 12:06:45;;;;;;;16.85;9.73;;;10.30;99.90;;;;;;5024403;28;20041;-71
2023/03/20 12:09:47;;;;;;;14.75;8.90;;;10.40;99.90;;;;;;5028793;28;20179;-70
2023/03/20 12:12:35;;;;;;;14.90;8.50;;;10.40;99.90;;;;;;5006904;28;20061;-71
2023/03/20 12:15:14;;;;;;;13.32;9.23;;;10.50;99.90;;;;;;5026924;28;20962;-70
2023/03/20 12:17:55;;;;;;;14.77;9.30;;;10.50;99.90;;;;;;5023105;28;20477;-71
2023/03/20 12:20:47;;;;;;;14.93;9.30;;;10.60;99.90;;;;;;5033837;28;20037;-70
2023/03/20 12:23:22;;;;;;;11.00;8.32;;;10.60;99.90;;;;;;5012807;28;20077;-70
2023/03/20 12:26:03;;;;;;;15.23;8.07;;;10.60;99.90;;;;;;5014762;28;20046;-71
2023/03/20 12:28:44;;;;;;;14.93;8.73;;;10.60;99.90;;;;;;5028910;28;20049;-71
2023/03/20 12:31:12;;;;;;;14.65;8.52;;;10.60;99.90;;;;;;5029315;28;20159;-71
2023/03/20 12:33:48;;;;;;;15.77;8.05;;;10.60;99.90;;;;;;5025863;28;20046;-71
2023/03/20 12:36:17;;;;;;;12.00;7.65;;;10.60;99.90;;;;;;5019687;28;20057;-70
2023/03/20 12:38:44;;;;;;;15.15;8.00;;;10.60;99.90;;;;;;5022213;28;20445;-70
2023/03/20 12:41:12;;;;;;;;;;;10.70;99.90;;;;;;5029396;28;20041;-70
2023/03/20 12:44:29;;;;;;;12.77;6.93;;;10.70;99.90;;;;;;5020982;28;19925;-70
2023/03/20 12:46:58;;;;;;;10.32;5.88;;;10.80;99.90;;;;;;5010843;28;20071;-70
2023/03/20 12:49:46;;;;;;;12.02;6.15;;;10.80;99.90;;;;;;5024432;28;20056;-70
2023/03/20 12:52:39;;;;;;;11.30;5.63;;;10.80;99.90;;;;;;5027545;28;20041;-70
2023/03/20 12:55:12;;;;;;;11.65;5.45;;;10.80;99.90;;;;;;5014278;28;20065;-70
2023/03/20 12:57:46;;;;;;;8.32;5.32;;;10.90;99.90;;;;;;5021052;28;20413;-69
2023/03/20 13:00:39;;;;;;;10.52;5.03;;;10.90;99.90;;;;;;5015878;28;20485;-70